sensor_id;sensor_type;location;lat;lon;timestamp;pressure;altitude;pressure_sealevel;temperature;humidity
33859;BME280;20156;47.486;12.074;2023-02-22T00:00:40;95073.88;;;1.88;100.00
33859;BME280;20156;47.486;12.074;2023-02-22T00:05:44;95069.66;;;1.79;100.00
33859;BME280;20156;47.486;12.074;2023-02-22T00:08:13;95058.34;;;1.90;100.00
33859;BME280;20156;47.486;12.074;2023-02-22T00:10:38;95054.81;;;1.91;100.00
33859;BME280;20156;47.486;12.074;2023-02-22T00:13:06;95063.41;;;1.81;100.00
33859;BME280;20156;47.486;12.074;2023-02-22T00:15:32;95059.63;;;1.86;100.00
33859;BME280;20156;47.486;12.074;2023-02-22T00:17:59;95063.47;;;1.90;100.00
33859;BME280;20156;47.486;12.074;2023-02-22T00:20:24;95061.50;;;1.84;100.00
33859;BME280;20156;47.486;12.074;2023-02-22T00:22:51;95057.84;;;1.86;100.00
33859;BME280;20156;47.486;12.074;2023-02-22T00:25:23;95071.91;;;1.82;100.00
33859;BME280;20156;47.486;12.074;2023-02-22T00:27:50;95075.91;;;1.76;100.00
33859;BME280;20156;47.486;12.074;2023-02-22T00:30:25;95076.31;;;1.64;100.00
33859;BME280;20156;47.486;12.074;2023-02-22T00:32:53;95072.91;;;1.55;100.00
33859;BME280;20156;47.486;12.074;2023-02-22T00:35:21;95066.53;;;1.59;100.00
33859;BME280;20156;47.486;12.074;2023-02-22T00:37:48;95068.78;;;1.62;100.00
33859;BME280;20156;47.486;12.074;2023-02-22T00:40:17;95059.78;;;1.58;100.00
33859;BME280;20156;47.486;12.074;2023-02-22T00:42:43;95059.63;;;1.60;100.00
33859;BME280;20156;47.486;12.074;2023-02-22T00:45:11;95055.31;;;1.60;100.00
33859;BME280;20156;47.486;12.074;2023-02-22T00:47:37;95068.41;;;1.31;100.00
33859;BME280;20156;47.486;12.074;2023-02-22T00:50:03;95056.63;;;1.38;100.00
33859;BME280;20156;47.486;12.074;2023-02-22T00:52:28;95038.16;;;1.53;100.00
33859;BME280;20156;47.486;12.074;2023-02-22T00:54:54;95043.22;;;1.44;100.00
33859;BME280;20156;47.486;12.074;2023-02-22T00:57:21;95043.25;;;1.27;100.00
33859;BME280;20156;47.486;12.074;2023-02-22T00:59:47;95035.34;;;1.38;100.00
33859;BME280;20156;47.486;12.074;2023-02-22T01:02:12;95025.97;;;1.55;100.00
33859;BME280;20156;47.486;12.074;2023-02-22T01:04:38;95022.78;;;1.53;100.00
33859;BME280;20156;47.486;12.074;2023-02-22T01:07:04;95031.16;;;1.37;100.00
33859;BME280;20156;47.486;12.074;2023-02-22T01:09:29;95035.13;;;1.05;100.00
33859;BME280;20156;47.486;12.074;2023-02-22T01:11:55;95028.56;;;0.85;100.00
33859;BME280;20156;47.486;12.074;2023-02-22T01:14:22;95014.72;;;0.96;100.00
33859;BME280;20156;47.486;12.074;2023-02-22T01:16:49;94999.28;;;1.05;100.00
33859;BME280;20156;47.486;12.074;2023-02-22T01:19:15;94985.53;;;1.14;100.00
33859;BME280;20156;47.486;12.074;2023-02-22T01:21:41;94973.75;;;1.22;100.00
33859;BME280;20156;47.486;12.074;2023-02-22T01:24:06;94969.13;;;1.25;100.00
33859;BME280;20156;47.486;12.074;2023-02-22T01:26:32;94970.44;;;1.29;100.00
33859;BME280;20156;47.486;12.074;2023-02-22T01:28:57;94980.28;;;0.90;100.00
33859;BME280;20156;47.486;12.074;2023-02-22T01:31:23;94993.56;;;0.68;100.00
33859;BME280;20156;47.486;12.074;2023-02-22T01:33:49;94974.25;;;0.73;100.00
33859;BME280;20156;47.486;12.074;2023-02-22T01:36:16;94942.13;;;0.79;100.00
33859;BME280;20156;47.486;12.074;2023-02-22T01:38:43;94915.56;;;1.06;100.00
33859;BME280;20156;47.486;12.074;2023-02-22T01:41:10;94884.44;;;1.18;100.00
33859;BME280;20156;47.486;12.074;2023-02-22T01:43:36;94881.88;;;1.18;100.00
33859;BME280;20156;47.486;12.074;2023-02-22T01:46:23;94910.34;;;0.64;100.00
33859;BME280;20156;47.486;12.074;2023-02-22T01:48:56;94892.84;;;0.77;100.00
33859;BME280;20156;47.486;12.074;2023-02-22T01:51:30;94887.78;;;0.85;100.00
33859;BME280;20156;47.486;12.074;2023-02-22T01:57:06;94826.03;;;0.88;100.00
33859;BME280;20156;47.486;12.074;2023-02-22T01:59:35;94734.16;;;0.77;100.00
33859;BME280;20156;47.486;12.074;2023-02-22T02:02:02;94729.84;;;0.77;100.00
33859;BME280;20156;47.486;12.074;2023-02-22T02:04:30;94724.94;;;0.92;100.00
33859;BME280;20156;47.486;12.074;2023-02-22T02:07:00;94706.22;;;1.00;100.00
33859;BME280;20156;47.486;12.074;2023-02-22T02:09:43;94688.31;;;1.08;100.00
33859;BME280;20156;47.486;12.074;2023-02-22T02:12:13;94681.91;;;1.12;100.00
33859;BME280;20156;47.486;12.074;2023-02-22T02:14:40;94685.09;;;0.98;100.00
33859;BME280;20156;47.486;12.074;2023-02-22T02:17:08;94682.09;;;1.02;100.00
33859;BME280;20156;47.486;12.074;2023-02-22T02:22:22;94679.53;;;1.02;100.00
33859;BME280;20156;47.486;12.074;2023-02-22T02:33:21;94701.38;;;0.80;100.00
33859;BME280;20156;47.486;12.074;2023-02-22T02:36:07;94688.47;;;0.90;100.00
33859;BME280;20156;47.486;12.074;2023-02-22T02:41:14;94690.38;;;0.88;100.00
33859;BME280;20156;47.486;12.074;2023-02-22T02:43:52;94682.53;;;0.89;100.00
33859;BME280;20156;47.486;12.074;2023-02-22T02:49:19;94684.63;;;0.86;100.00
33859;BME280;20156;47.486;12.074;2023-02-22T02:51:49;94693.38;;;0.83;100.00
33859;BME280;20156;47.486;12.074;2023-02-22T02:54:18;94685.41;;;0.86;100.00
33859;BME280;20156;47.486;12.074;2023-02-22T02:56:44;94689.22;;;0.82;100.00
33859;BME280;20156;47.486;12.074;2023-02-22T02:59:27;94679.19;;;0.89;100.00
33859;BME280;20156;47.486;12.074;2023-02-22T03:20:27;94682.81;;;0.70;100.00
33859;BME280;20156;47.486;12.074;2023-02-22T03:23:36;94661.84;;;0.67;100.00
33859;BME280;20156;47.486;12.074;2023-02-22T03:26:10;94635.63;;;0.73;100.00
33859;BME280;20156;47.486;12.074;2023-02-22T03:28:39;94611.47;;;0.75;100.00
33859;BME280;20156;47.486;12.074;2023-02-22T03:31:12;94584.78;;;0.78;100.00
33859;BME280;20156;47.486;12.074;2023-02-22T03:33:45;94563.53;;;0.85;100.00
33859;BME280;20156;47.486;12.074;2023-02-22T03:36:18;94557.09;;;0.81;100.00
33859;BME280;20156;47.486;12.074;2023-02-22T03:38:46;94532.00;;;0.85;100.00
33859;BME280;20156;47.486;12.074;2023-02-22T03:41:16;94548.47;;;0.58;100.00
33859;BME280;20156;47.486;12.074;2023-02-22T03:43:49;94683.69;;;0.45;100.00
33859;BME280;20156;47.486;12.074;2023-02-22T03:46:17;94664.31;;;0.34;100.00
33859;BME280;20156;47.486;12.074;2023-02-22T03:48:50;94649.63;;;0.44;100.00
33859;BME280;20156;47.486;12.074;2023-02-22T03:51:18;94638.28;;;0.47;100.00
33859;BME280;20156;47.486;12.074;2023-02-22T03:53:45;94632.38;;;0.46;100.00
33859;BME280;20156;47.486;12.074;2023-02-22T03:56:16;94622.50;;;0.59;100.00
33859;BME280;20156;47.486;12.074;2023-02-22T03:58:45;94617.22;;;0.61;100.00
33859;BME280;20156;47.486;12.074;2023-02-22T04:01:12;94625.53;;;0.63;100.00
33859;BME280;20156;47.486;12.074;2023-02-22T04:03:38;94640.88;;;0.55;100.00
33859;BME280;20156;47.486;12.074;2023-02-22T04:06:04;94681.50;;;0.58;100.00
33859;BME280;20156;47.486;12.074;2023-02-22T04:08:30;94675.09;;;0.62;100.00
33859;BME280;20156;47.486;12.074;2023-02-22T04:10:55;94676.38;;;0.66;100.00
33859;BME280;20156;47.486;12.074;2023-02-22T04:13:21;94664.91;;;0.78;100.00
33859;BME280;20156;47.486;12.074;2023-02-22T04:15:46;94673.25;;;0.88;100.00
33859;BME280;20156;47.486;12.074;2023-02-22T04:18:11;94705.59;;;0.47;100.00
33859;BME280;20156;47.486;12.074;2023-02-22T04:20:38;94727.56;;;0.24;100.00
33859;BME280;20156;47.486;12.074;2023-02-22T04:23:04;94714.47;;;0.27;100.00
33859;BME280;20156;47.486;12.074;2023-02-22T04:25:29;94696.94;;;0.40;100.00
33859;BME280;20156;47.486;12.074;2023-02-22T04:27:54;94696.69;;;0.51;100.00
33859;BME280;20156;47.486;12.074;2023-02-22T04:30:20;94681.97;;;0.62;100.00
33859;BME280;20156;47.486;12.074;2023-02-22T04:32:46;94692.03;;;0.55;100.00
33859;BME280;20156;47.486;12.074;2023-02-22T04:35:11;94710.13;;;0.19;100.00
33859;BME280;20156;47.486;12.074;2023-02-22T04:37:37;94713.47;;;-0.06;100.00
33859;BME280;20156;47.486;12.074;2023-02-22T04:40:03;94696.25;;;-0.04;100.00
33859;BME280;20156;47.486;12.074;2023-02-22T04:42:33;94691.34;;;0.03;100.00
33859;BME280;20156;47.486;12.074;2023-02-22T04:44:59;94677.03;;;0.18;100.00
33859;BME280;20156;47.486;12.074;2023-02-22T04:47:24;94670.59;;;0.14;100.00
33859;BME280;20156;47.486;12.074;2023-02-22T04:49:50;94671.47;;;0.22;100.00
33859;BME280;20156;47.486;12.074;2023-02-22T04:52:15;94671.56;;;0.13;100.00
33859;BME280;20156;47.486;12.074;2023-02-22T04:54:41;94695.16;;;-0.27;100.00
33859;BME280;20156;47.486;12.074;2023-02-22T04:57:06;94673.66;;;-0.17;100.00
33859;BME280;20156;47.486;12.074;2023-02-22T04:59:32;94667.88;;;0.07;100.00
33859;BME280;20156;47.486;12.074;2023-02-22T05:01:58;94654.34;;;0.23;100.00
33859;BME280;20156;47.486;12.074;2023-02-22T05:04:25;94673.09;;;-0.03;100.00
33859;BME280;20156;47.486;12.074;2023-02-22T05:06:50;94674.00;;;-0.12;100.00
33859;BME280;20156;47.486;12.074;2023-02-22T05:09:15;94663.88;;;0.05;100.00
33859;BME280;20156;47.486;12.074;2023-02-22T05:11:41;94654.28;;;0.07;100.00
33859;BME280;20156;47.486;12.074;2023-02-22T05:14:06;94653.88;;;0.19;100.00
33859;BME280;20156;47.486;12.074;2023-02-22T05:16:32;94659.72;;;0.12;100.00
33859;BME280;20156;47.486;12.074;2023-02-22T05:18:57;94672.03;;;0.08;100.00
33859;BME280;20156;47.486;12.074;2023-02-22T05:21:23;94678.91;;;0.08;100.00
33859;BME280;20156;47.486;12.074;2023-02-22T05:23:48;94687.81;;;0.04;100.00
33859;BME280;20156;47.486;12.074;2023-02-22T05:26:14;94694.00;;;-0.07;100.00
33859;BME280;20156;47.486;12.074;2023-02-22T05:28:39;94689.19;;;-0.10;100.00
33859;BME280;20156;47.486;12.074;2023-02-22T05:31:05;94673.22;;;-0.04;100.00
33859;BME280;20156;47.486;12.074;2023-02-22T05:33:31;94661.09;;;-0.02;100.00
33859;BME280;20156;47.486;12.074;2023-02-22T05:35:57;94658.38;;;-0.09;100.00
33859;BME280;20156;47.486;12.074;2023-02-22T05:38:22;94655.09;;;-0.19;100.00
33859;BME280;20156;47.486;12.074;2023-02-22T05:40:48;94640.66;;;-0.02;100.00
33859;BME280;20156;47.486;12.074;2023-02-22T05:43:13;94635.97;;;0.19;100.00
33859;BME280;20156;47.486;12.074;2023-02-22T05:45:40;94638.31;;;0.13;100.00
33859;BME280;20156;47.486;12.074;2023-02-22T05:48:05;94661.22;;;-0.38;100.00
33859;BME280;20156;47.486;12.074;2023-02-22T05:50:31;94654.97;;;-0.43;100.00
33859;BME280;20156;47.486;12.074;2023-02-22T05:52:57;94643.09;;;-0.26;100.00
33859;BME280;20156;47.486;12.074;2023-02-22T05:55:23;94639.91;;;-0.28;100.00
33859;BME280;20156;47.486;12.074;2023-02-22T05:57:49;94647.50;;;-0.11;100.00
33859;BME280;20156;47.486;12.074;2023-02-22T06:00:21;94647.88;;;0.03;100.00
33859;BME280;20156;47.486;12.074;2023-02-22T06:02:53;94641.19;;;0.10;100.00
33859;BME280;20156;47.486;12.074;2023-02-22T06:05:18;94655.88;;;0.08;100.00
33859;BME280;20156;47.486;12.074;2023-02-22T06:07:44;94656.34;;;0.03;100.00
33859;BME280;20156;47.486;12.074;2023-02-22T06:10:09;94658.91;;;0.03;100.00
33859;BME280;20156;47.486;12.074;2023-02-22T06:12:35;94671.75;;;-0.15;100.00
33859;BME280;20156;47.486;12.074;2023-02-22T06:15:00;94681.28;;;-0.25;100.00
33859;BME280;20156;47.486;12.074;2023-02-22T06:17:25;94668.03;;;-0.20;100.00
33859;BME280;20156;47.486;12.074;2023-02-22T06:19:51;94660.91;;;-0.09;100.00
33859;BME280;20156;47.486;12.074;2023-02-22T06:22:17;94660.03;;;0.01;100.00
33859;BME280;20156;47.486;12.074;2023-02-22T06:24:43;94669.44;;;0.00;100.00
33859;BME280;20156;47.486;12.074;2023-02-22T06:27:09;94674.34;;;-0.07;100.00
33859;BME280;20156;47.486;12.074;2023-02-22T06:29:34;94666.13;;;0.08;100.00
33859;BME280;20156;47.486;12.074;2023-02-22T06:32:00;94661.38;;;0.21;100.00
33859;BME280;20156;47.486;12.074;2023-02-22T06:34:25;94661.72;;;0.26;100.00
33859;BME280;20156;47.486;12.074;2023-02-22T06:36:51;94667.78;;;0.25;100.00
33859;BME280;20156;47.486;12.074;2023-02-22T06:39:16;94673.72;;;0.34;100.00
33859;BME280;20156;47.486;12.074;2023-02-22T06:41:44;94660.69;;;0.53;100.00
33859;BME280;20156;47.486;12.074;2023-02-22T06:44:11;94656.88;;;0.57;100.00
33859;BME280;20156;47.486;12.074;2023-02-22T06:46:38;94674.75;;;0.49;100.00
33859;BME280;20156;47.486;12.074;2023-02-22T06:49:04;94697.66;;;0.24;100.00
33859;BME280;20156;47.486;12.074;2023-02-22T06:51:34;94695.66;;;0.36;100.00
33859;BME280;20156;47.486;12.074;2023-02-22T06:54:00;94699.91;;;0.27;100.00
33859;BME280;20156;47.486;12.074;2023-02-22T06:56:25;94690.38;;;0.38;100.00
33859;BME280;20156;47.486;12.074;2023-02-22T06:58:50;94697.09;;;0.39;100.00
33859;BME280;20156;47.486;12.074;2023-02-22T07:01:16;94693.75;;;0.38;100.00
33859;BME280;20156;47.486;12.074;2023-02-22T07:03:41;94691.19;;;0.46;100.00
33859;BME280;20156;47.486;12.074;2023-02-22T07:06:07;94702.13;;;0.56;100.00
33859;BME280;20156;47.486;12.074;2023-02-22T07:08:32;94704.41;;;0.76;100.00
33859;BME280;20156;47.486;12.074;2023-02-22T07:10:58;94730.59;;;0.62;100.00
33859;BME280;20156;47.486;12.074;2023-02-22T07:13:23;94751.47;;;0.15;100.00
33859;BME280;20156;47.486;12.074;2023-02-22T07:15:49;94757.44;;;0.23;100.00
33859;BME280;20156;47.486;12.074;2023-02-22T07:18:14;94739.81;;;0.46;100.00
33859;BME280;20156;47.486;12.074;2023-02-22T07:20:40;94748.09;;;0.40;100.00
33859;BME280;20156;47.486;12.074;2023-02-22T07:23:06;94736.59;;;0.44;100.00
33859;BME280;20156;47.486;12.074;2023-02-22T07:25:32;94743.22;;;0.55;100.00
33859;BME280;20156;47.486;12.074;2023-02-22T07:27:57;94726.91;;;0.56;100.00
33859;BME280;20156;47.486;12.074;2023-02-22T07:30:26;94714.00;;;0.74;100.00
33859;BME280;20156;47.486;12.074;2023-02-22T07:32:55;94715.16;;;0.87;100.00
33859;BME280;20156;47.486;12.074;2023-02-22T07:35:42;94709.28;;;1.03;100.00
33859;BME280;20156;47.486;12.074;2023-02-22T07:38:08;94713.91;;;1.00;100.00
33859;BME280;20156;47.486;12.074;2023-02-22T07:40:36;94730.63;;;0.70;100.00
33859;BME280;20156;47.486;12.074;2023-02-22T07:45:50;94673.75;;;0.92;100.00
33859;BME280;20156;47.486;12.074;2023-02-22T07:48:17;94666.88;;;1.17;100.00
33859;BME280;20156;47.486;12.074;2023-02-22T07:50:43;94681.13;;;1.28;100.00
33859;BME280;20156;47.486;12.074;2023-02-22T07:53:15;94671.38;;;1.31;100.00
33859;BME280;20156;47.486;12.074;2023-02-22T07:55:42;94656.16;;;1.38;100.00
33859;BME280;20156;47.486;12.074;2023-02-22T07:58:11;94675.38;;;1.34;100.00
33859;BME280;20156;47.486;12.074;2023-02-22T08:00:38;94679.53;;;1.27;100.00
33859;BME280;20156;47.486;12.074;2023-02-22T08:03:07;94664.16;;;1.43;100.00
33859;BME280;20156;47.486;12.074;2023-02-22T08:05:33;94665.75;;;1.68;100.00
33859;BME280;20156;47.486;12.074;2023-02-22T08:07:59;94672.94;;;1.89;100.00
33859;BME280;20156;47.486;12.074;2023-02-22T08:10:26;94665.03;;;2.07;100.00
33859;BME280;20156;47.486;12.074;2023-02-22T08:12:52;94674.00;;;2.11;100.00
33859;BME280;20156;47.486;12.074;2023-02-22T08:15:25;94669.78;;;2.18;100.00
33859;BME280;20156;47.486;12.074;2023-02-22T08:17:50;94677.59;;;2.33;100.00
33859;BME280;20156;47.486;12.074;2023-02-22T08:20:17;94668.88;;;2.50;100.00
33859;BME280;20156;47.486;12.074;2023-02-22T08:22:44;94671.06;;;2.69;100.00
33859;BME280;20156;47.486;12.074;2023-02-22T08:25:10;94689.41;;;2.89;100.00
33859;BME280;20156;47.486;12.074;2023-02-22T08:27:36;94711.94;;;3.02;100.00
33859;BME280;20156;47.486;12.074;2023-02-22T08:30:02;94714.09;;;3.21;100.00
33859;BME280;20156;47.486;12.074;2023-02-22T08:32:28;94732.19;;;3.28;100.00
33859;BME280;20156;47.486;12.074;2023-02-22T08:34:53;94742.69;;;3.18;100.00
33859;BME280;20156;47.486;12.074;2023-02-22T08:37:18;94751.78;;;3.29;100.00
33859;BME280;20156;47.486;12.074;2023-02-22T08:39:44;94757.63;;;3.23;100.00
33859;BME280;20156;47.486;12.074;2023-02-22T08:42:10;94757.56;;;3.31;100.00
33859;BME280;20156;47.486;12.074;2023-02-22T08:44:36;94761.16;;;3.45;100.00
33859;BME280;20156;47.486;12.074;2023-02-22T08:47:02;94756.25;;;3.58;100.00
33859;BME280;20156;47.486;12.074;2023-02-22T08:49:28;94752.03;;;3.88;100.00
33859;BME280;20156;47.486;12.074;2023-02-22T08:51:53;94762.34;;;4.17;100.00
33859;BME280;20156;47.486;12.074;2023-02-22T08:54:19;94736.03;;;4.45;100.00
33859;BME280;20156;47.486;12.074;2023-02-22T08:56:44;94722.91;;;4.55;100.00
33859;BME280;20156;47.486;12.074;2023-02-22T08:59:10;94692.69;;;4.48;100.00
33859;BME280;20156;47.486;12.074;2023-02-22T09:01:35;94657.53;;;4.56;100.00
33859;BME280;20156;47.486;12.074;2023-02-22T09:04:01;94650.03;;;4.75;100.00
33859;BME280;20156;47.486;12.074;2023-02-22T09:06:27;94641.34;;;4.98;100.00
33859;BME280;20156;47.486;12.074;2023-02-22T09:08:53;94657.81;;;5.18;100.00
33859;BME280;20156;47.486;12.074;2023-02-22T09:11:18;94667.22;;;5.26;100.00
33859;BME280;20156;47.486;12.074;2023-02-22T09:13:44;94676.91;;;5.45;100.00
33859;BME280;20156;47.486;12.074;2023-02-22T09:16:09;94647.72;;;5.66;100.00
33859;BME280;20156;47.486;12.074;2023-02-22T09:18:35;94647.63;;;5.81;100.00
33859;BME280;20156;47.486;12.074;2023-02-22T09:21:01;94650.53;;;5.92;100.00
33859;BME280;20156;47.486;12.074;2023-02-22T09:23:27;94612.91;;;6.11;100.00
33859;BME280;20156;47.486;12.074;2023-02-22T09:25:52;94537.91;;;6.32;100.00
33859;BME280;20156;47.486;12.074;2023-02-22T09:28:18;94513.72;;;6.40;100.00
33859;BME280;20156;47.486;12.074;2023-02-22T09:30:43;94520.13;;;6.57;100.00
33859;BME280;20156;47.486;12.074;2023-02-22T09:33:09;94545.97;;;6.57;100.00
33859;BME280;20156;47.486;12.074;2023-02-22T09:35:36;94552.81;;;6.24;100.00
33859;BME280;20156;47.486;12.074;2023-02-22T09:38:03;94551.53;;;6.61;100.00
33859;BME280;20156;47.486;12.074;2023-02-22T09:40:31;94544.03;;;6.92;100.00
33859;BME280;20156;47.486;12.074;2023-02-22T09:45:28;94557.16;;;7.50;100.00
33859;BME280;20156;47.486;12.074;2023-02-22T09:47:59;94559.97;;;7.62;100.00
33859;BME280;20156;47.486;12.074;2023-02-22T09:50:35;94555.75;;;7.74;100.00
33859;BME280;20156;47.486;12.074;2023-02-22T09:55:50;94555.63;;;8.34;100.00
33859;BME280;20156;47.486;12.074;2023-02-22T09:58:24;94559.63;;;8.23;100.00
33859;BME280;20156;47.486;12.074;2023-02-22T10:00:56;94557.91;;;8.62;100.00
33859;BME280;20156;47.486;12.074;2023-02-22T10:06:10;94568.59;;;8.72;100.00
33859;BME280;20156;47.486;12.074;2023-02-22T10:08:36;94565.94;;;8.85;100.00
33859;BME280;20156;47.486;12.074;2023-02-22T10:14:50;94559.50;;;9.26;100.00
33859;BME280;20156;47.486;12.074;2023-02-22T10:17:19;94550.69;;;9.52;100.00
33859;BME280;20156;47.486;12.074;2023-02-22T10:25:39;94561.47;;;9.99;100.00
33859;BME280;20156;47.486;12.074;2023-02-22T10:28:18;94559.25;;;10.39;100.00
33859;BME280;20156;47.486;12.074;2023-02-22T10:30:51;94557.28;;;10.52;100.00
33859;BME280;20156;47.486;12.074;2023-02-22T10:33:31;94547.19;;;10.44;100.00
33859;BME280;20156;47.486;12.074;2023-02-22T10:35:58;94557.06;;;10.54;100.00
33859;BME280;20156;47.486;12.074;2023-02-22T10:38:26;94531.41;;;10.58;100.00
33859;BME280;20156;47.486;12.074;2023-02-22T10:43:33;94532.19;;;10.88;100.00
33859;BME280;20156;47.486;12.074;2023-02-22T10:46:01;94528.63;;;10.71;100.00
33859;BME280;20156;47.486;12.074;2023-02-22T10:48:30;94533.78;;;10.89;100.00
33859;BME280;20156;47.486;12.074;2023-02-22T10:50:59;94525.75;;;10.79;100.00
33859;BME280;20156;47.486;12.074;2023-02-22T10:53:26;94524.31;;;10.95;100.00
33859;BME280;20156;47.486;12.074;2023-02-22T10:56:13;94520.28;;;11.10;100.00
33859;BME280;20156;47.486;12.074;2023-02-22T10:58:42;94523.81;;;11.28;100.00
33859;BME280;20156;47.486;12.074;2023-02-22T11:06:24;94455.56;;;11.61;100.00
33859;BME280;20156;47.486;12.074;2023-02-22T11:08:50;94441.94;;;11.70;100.00
33859;BME280;20156;47.486;12.074;2023-02-22T11:11:22;94415.19;;;11.75;100.00
33859;BME280;20156;47.486;12.074;2023-02-22T11:13:57;94395.03;;;11.70;100.00
33859;BME280;20156;47.486;12.074;2023-02-22T11:19:20;94401.69;;;12.30;100.00
33859;BME280;20156;47.486;12.074;2023-02-22T11:21:50;94374.59;;;12.48;100.00
33859;BME280;20156;47.486;12.074;2023-02-22T11:24:18;94330.88;;;12.55;100.00
33859;BME280;20156;47.486;12.074;2023-02-22T11:26:48;94330.00;;;12.83;100.00
33859;BME280;20156;47.486;12.074;2023-02-22T11:31:45;94280.38;;;12.44;100.00
33859;BME280;20156;47.486;12.074;2023-02-22T11:40:14;94244.59;;;12.78;100.00
33859;BME280;20156;47.486;12.074;2023-02-22T11:42:44;94224.47;;;13.17;100.00
33859;BME280;20156;47.486;12.074;2023-02-22T11:47:49;94215.28;;;13.37;100.00
33859;BME280;20156;47.486;12.074;2023-02-22T11:54:13;94052.25;;;13.65;100.00
33859;BME280;20156;47.486;12.074;2023-02-22T11:56:51;93910.75;;;14.03;100.00
33859;BME280;20156;47.486;12.074;2023-02-22T12:09:30;94239.44;;;13.44;100.00
33859;BME280;20156;47.486;12.074;2023-02-22T12:20:28;94743.09;;;13.53;100.00
33859;BME280;20156;47.486;12.074;2023-02-22T12:23:12;94772.94;;;13.98;100.00
33859;BME280;20156;47.486;12.074;2023-02-22T12:25:47;94770.19;;;14.38;100.00
33859;BME280;20156;47.486;12.074;2023-02-22T12:28:29;94781.50;;;14.27;100.00
33859;BME280;20156;47.486;12.074;2023-02-22T12:31:04;94812.31;;;14.36;100.00
33859;BME280;20156;47.486;12.074;2023-02-22T12:33:43;94821.97;;;14.64;100.00
33859;BME280;20156;47.486;12.074;2023-02-22T12:36:14;94828.38;;;14.90;100.00
33859;BME280;20156;47.486;12.074;2023-02-22T12:38:49;94832.75;;;14.85;100.00
33859;BME280;20156;47.486;12.074;2023-02-22T12:41:37;94830.50;;;14.77;100.00
33859;BME280;20156;47.486;12.074;2023-02-22T12:44:16;94837.56;;;14.76;100.00
33859;BME280;20156;47.486;12.074;2023-02-22T12:46:49;94837.81;;;14.74;100.00
33859;BME280;20156;47.486;12.074;2023-02-22T12:49:30;94833.84;;;15.05;100.00
33859;BME280;20156;47.486;12.074;2023-02-22T12:55:20;94837.22;;;15.61;98.50
33859;BME280;20156;47.486;12.074;2023-02-22T12:57:55;94841.53;;;15.12;93.76
33859;BME280;20156;47.486;12.074;2023-02-22T13:00:36;94830.16;;;15.23;100.00
33859;BME280;20156;47.486;12.074;2023-02-22T13:05:39;94819.75;;;15.94;100.00
33859;BME280;20156;47.486;12.074;2023-02-22T13:10:56;94813.31;;;16.02;100.00
33859;BME280;20156;47.486;12.074;2023-02-22T13:13:35;94817.53;;;15.81;100.00
33859;BME280;20156;47.486;12.074;2023-02-22T13:24:07;94806.44;;;15.74;100.00
33859;BME280;20156;47.486;12.074;2023-02-22T13:29:29;94799.97;;;16.08;100.00
33859;BME280;20156;47.486;12.074;2023-02-22T13:51:06;94797.41;;;15.86;95.88
33859;BME280;20156;47.486;12.074;2023-02-22T13:54:45;94796.78;;;16.01;100.00
33859;BME280;20156;47.486;12.074;2023-02-22T13:56:47;94792.50;;;16.22;96.72
33859;BME280;20156;47.486;12.074;2023-02-22T13:59:25;94790.66;;;15.69;96.41
33859;BME280;20156;47.486;12.074;2023-02-22T14:01:51;94791.03;;;15.39;100.00
33859;BME280;20156;47.486;12.074;2023-02-22T14:09:49;94180.81;;;13.62;100.00
33859;BME280;20156;47.486;12.074;2023-02-22T14:17:36;93711.69;;;12.81;100.00
33859;BME280;20156;47.486;12.074;2023-02-22T14:20:18;93724.75;;;12.86;100.00
33859;BME280;20156;47.486;12.074;2023-02-22T14:22:49;93616.41;;;12.69;100.00
33859;BME280;20156;47.486;12.074;2023-02-22T14:25:35;93584.56;;;12.72;100.00
33859;BME280;20156;47.486;12.074;2023-02-22T14:28:08;93555.06;;;12.66;100.00
33859;BME280;20156;47.486;12.074;2023-02-22T14:31:07;93551.44;;;12.72;100.00
33859;BME280;20156;47.486;12.074;2023-02-22T14:33:58;93539.19;;;12.83;100.00
33859;BME280;20156;47.486;12.074;2023-02-22T14:36:30;93562.94;;;12.86;100.00
33859;BME280;20156;47.486;12.074;2023-02-22T14:41:56;93572.34;;;12.77;100.00
33859;BME280;20156;47.486;12.074;2023-02-22T14:47:08;93536.56;;;12.62;100.00
33859;BME280;20156;47.486;12.074;2023-02-22T14:49:41;93552.22;;;12.73;100.00
33859;BME280;20156;47.486;12.074;2023-02-22T14:52:23;93585.41;;;12.82;100.00
33859;BME280;20156;47.486;12.074;2023-02-22T14:54:55;93616.69;;;12.77;100.00
33859;BME280;20156;47.486;12.074;2023-02-22T14:57:33;93601.25;;;12.71;100.00
33859;BME280;20156;47.486;12.074;2023-02-22T15:00:13;93553.78;;;12.74;100.00
33859;BME280;20156;47.486;12.074;2023-02-22T15:02:47;93495.84;;;12.67;100.00
33859;BME280;20156;47.486;12.074;2023-02-22T15:05:16;93499.00;;;12.69;100.00
33859;BME280;20156;47.486;12.074;2023-02-22T15:07:56;93502.91;;;12.71;100.00
33859;BME280;20156;47.486;12.074;2023-02-22T15:10:44;93523.25;;;12.74;100.00
33859;BME280;20156;47.486;12.074;2023-02-22T15:13:26;93553.78;;;12.69;100.00
33859;BME280;20156;47.486;12.074;2023-02-22T15:15:57;93595.53;;;12.74;100.00
33859;BME280;20156;47.486;12.074;2023-02-22T15:18:31;93655.47;;;12.58;100.00
33859;BME280;20156;47.486;12.074;2023-02-22T15:21:05;93757.25;;;12.63;100.00
33859;BME280;20156;47.486;12.074;2023-02-22T15:23:42;93843.63;;;12.62;100.00
33859;BME280;20156;47.486;12.074;2023-02-22T15:26:33;93947.47;;;12.65;100.00
33859;BME280;20156;47.486;12.074;2023-02-22T15:29:00;93983.22;;;12.64;100.00
33859;BME280;20156;47.486;12.074;2023-02-22T15:31:32;93907.59;;;12.43;100.00
33859;BME280;20156;47.486;12.074;2023-02-22T15:36:44;94120.88;;;12.57;100.00
33859;BME280;20156;47.486;12.074;2023-02-22T15:39:22;94160.00;;;12.57;100.00
33859;BME280;20156;47.486;12.074;2023-02-22T15:42:04;94055.31;;;12.49;100.00